sensor_id;sensor_type;location;lat;lon;timestamp;P1;durP1;ratioP1;P2;durP2;ratioP2
1174;SDS011;576;48.418;10.074;2023-07-13T00:01:15;2.43;;;2.10;;
1174;SDS011;576;48.418;10.074;2023-07-13T00:03:44;2.40;;;2.30;;
1174;SDS011;576;48.418;10.074;2023-07-13T00:06:12;2.13;;;1.80;;
1174;SDS011;576;48.418;10.074;2023-07-13T00:08:40;2.53;;;2.33;;
1174;SDS011;576;48.418;10.074;2023-07-13T00:11:08;5.00;;;1.77;;
1174;SDS011;576;48.418;10.074;2023-07-13T00:13:37;2.33;;;1.90;;
1174;SDS011;576;48.418;10.074;2023-07-13T00:16:06;3.10;;;2.20;;
1174;SDS011;576;48.418;10.074;2023-07-13T00:18:37;2.97;;;1.83;;
1174;SDS011;576;48.418;10.074;2023-07-13T00:21:05;2.30;;;2.20;;
1174;SDS011;576;48.418;10.074;2023-07-13T00:23:33;2.50;;;2.30;;
1174;SDS011;576;48.418;10.074;2023-07-13T00:26:03;2.30;;;2.10;;
1174;SDS011;576;48.418;10.074;2023-07-13T00:28:33;3.97;;;2.23;;
1174;SDS011;576;48.418;10.074;2023-07-13T00:31:01;4.17;;;2.40;;
1174;SDS011;576;48.418;10.074;2023-07-13T00:33:33;3.60;;;2.27;;
1174;SDS011;576;48.418;10.074;2023-07-13T00:36:03;3.87;;;2.60;;
1174;SDS011;576;48.418;10.074;2023-07-13T00:38:32;2.90;;;2.30;;
1174;SDS011;576;48.418;10.074;2023-07-13T00:41:00;2.80;;;2.60;;
1174;SDS011;576;48.418;10.074;2023-07-13T00:43:30;1.90;;;1.80;;
1174;SDS011;576;48.418;10.074;2023-07-13T00:48:50;3.20;;;2.63;;
1174;SDS011;576;48.418;10.074;2023-07-13T00:51:25;2.83;;;2.63;;
1174;SDS011;576;48.418;10.074;2023-07-13T00:53:59;2.90;;;2.70;;
1174;SDS011;576;48.418;10.074;2023-07-13T00:56:30;2.40;;;2.20;;
1174;SDS011;576;48.418;10.074;2023-07-13T00:59:00;2.80;;;2.60;;
1174;SDS011;576;48.418;10.074;2023-07-13T01:01:30;2.70;;;2.50;;
1174;SDS011;576;48.418;10.074;2023-07-13T01:04:00;3.80;;;3.40;;
1174;SDS011;576;48.418;10.074;2023-07-13T01:06:29;2.33;;;2.10;;
1174;SDS011;576;48.418;10.074;2023-07-13T01:08:58;2.93;;;2.60;;
1174;SDS011;576;48.418;10.074;2023-07-13T01:11:27;2.60;;;2.40;;
1174;SDS011;576;48.418;10.074;2023-07-13T01:13:56;3.10;;;2.90;;
1174;SDS011;576;48.418;10.074;2023-07-13T01:16:25;3.50;;;2.43;;
1174;SDS011;576;48.418;10.074;2023-07-13T01:18:57;2.67;;;2.50;;
1174;SDS011;576;48.418;10.074;2023-07-13T01:21:27;2.87;;;2.67;;
1174;SDS011;576;48.418;10.074;2023-07-13T01:23:58;2.97;;;2.77;;
1174;SDS011;576;48.418;10.074;2023-07-13T01:26:26;2.73;;;2.53;;
1174;SDS011;576;48.418;10.074;2023-07-13T01:28:55;3.00;;;2.70;;
1174;SDS011;576;48.418;10.074;2023-07-13T01:31:24;3.33;;;3.03;;
1174;SDS011;576;48.418;10.074;2023-07-13T01:33:52;2.60;;;2.40;;
1174;SDS011;576;48.418;10.074;2023-07-13T01:36:20;5.80;;;2.53;;
1174;SDS011;576;48.418;10.074;2023-07-13T01:38:50;2.80;;;2.43;;
1174;SDS011;576;48.418;10.074;2023-07-13T01:41:18;2.57;;;2.37;;
1174;SDS011;576;48.418;10.074;2023-07-13T01:43:46;3.90;;;2.23;;
1174;SDS011;576;48.418;10.074;2023-07-13T01:46:16;3.90;;;3.00;;
1174;SDS011;576;48.418;10.074;2023-07-13T01:48:50;2.60;;;2.40;;
1174;SDS011;576;48.418;10.074;2023-07-13T01:51:19;2.63;;;2.43;;
1174;SDS011;576;48.418;10.074;2023-07-13T01:53:49;2.80;;;2.60;;
1174;SDS011;576;48.418;10.074;2023-07-13T01:56:17;2.43;;;2.30;;
1174;SDS011;576;48.418;10.074;2023-07-13T01:58:46;3.17;;;2.97;;
1174;SDS011;576;48.418;10.074;2023-07-13T02:01:15;2.80;;;2.60;;
1174;SDS011;576;48.418;10.074;2023-07-13T02:03:43;2.50;;;2.30;;
1174;SDS011;576;48.418;10.074;2023-07-13T02:06:13;2.77;;;2.57;;
1174;SDS011;576;48.418;10.074;2023-07-13T02:08:41;3.00;;;2.70;;
1174;SDS011;576;48.418;10.074;2023-07-13T02:11:11;3.13;;;2.50;;
1174;SDS011;576;48.418;10.074;2023-07-13T02:13:39;3.00;;;2.70;;
1174;SDS011;576;48.418;10.074;2023-07-13T02:16:08;2.97;;;2.40;;
1174;SDS011;576;48.418;10.074;2023-07-13T02:18:36;3.03;;;2.70;;
1174;SDS011;576;48.418;10.074;2023-07-13T02:21:05;3.00;;;2.70;;
1174;SDS011;576;48.418;10.074;2023-07-13T02:23:33;2.90;;;2.70;;
1174;SDS011;576;48.418;10.074;2023-07-13T02:26:03;3.30;;;2.50;;
1174;SDS011;576;48.418;10.074;2023-07-13T02:28:33;3.17;;;2.60;;
1174;SDS011;576;48.418;10.074;2023-07-13T02:31:05;2.60;;;2.40;;
1174;SDS011;576;48.418;10.074;2023-07-13T02:33:34;2.70;;;2.47;;
1174;SDS011;576;48.418;10.074;2023-07-13T02:36:03;5.70;;;2.73;;
1174;SDS011;576;48.418;10.074;2023-07-13T02:38:32;2.67;;;2.20;;
1174;SDS011;576;48.418;10.074;2023-07-13T02:41:01;2.50;;;2.30;;
1174;SDS011;576;48.418;10.074;2023-07-13T02:43:30;4.70;;;2.70;;
1174;SDS011;576;48.418;10.074;2023-07-13T02:45:59;3.70;;;2.87;;
1174;SDS011;576;48.418;10.074;2023-07-13T02:48:34;2.77;;;2.57;;
1174;SDS011;576;48.418;10.074;2023-07-13T02:51:04;2.80;;;2.23;;
1174;SDS011;576;48.418;10.074;2023-07-13T02:53:32;2.27;;;2.17;;
1174;SDS011;576;48.418;10.074;2023-07-13T02:56:03;2.70;;;2.50;;
1174;SDS011;576;48.418;10.074;2023-07-13T02:58:31;2.10;;;2.00;;
1174;SDS011;576;48.418;10.074;2023-07-13T03:01:06;2.27;;;2.17;;
1174;SDS011;576;48.418;10.074;2023-07-13T03:03:36;2.50;;;2.30;;
1174;SDS011;576;48.418;10.074;2023-07-13T03:06:05;2.07;;;1.97;;
1174;SDS011;576;48.418;10.074;2023-07-13T03:08:44;2.10;;;1.90;;
1174;SDS011;576;48.418;10.074;2023-07-13T03:11:14;2.57;;;2.37;;
1174;SDS011;576;48.418;10.074;2023-07-13T03:13:47;2.50;;;2.30;;
1174;SDS011;576;48.418;10.074;2023-07-13T03:16:17;3.30;;;3.00;;
1174;SDS011;576;48.418;10.074;2023-07-13T03:18:48;2.30;;;2.17;;
1174;SDS011;576;48.418;10.074;2023-07-13T03:21:16;2.67;;;2.47;;
1174;SDS011;576;48.418;10.074;2023-07-13T03:23:45;2.47;;;2.30;;
1174;SDS011;576;48.418;10.074;2023-07-13T03:26:15;2.47;;;2.27;;
1174;SDS011;576;48.418;10.074;2023-07-13T03:28:47;2.23;;;2.13;;
1174;SDS011;576;48.418;10.074;2023-07-13T03:31:24;1.80;;;1.70;;
1174;SDS011;576;48.418;10.074;2023-07-13T03:33:55;2.87;;;2.67;;
1174;SDS011;576;48.418;10.074;2023-07-13T03:36:26;2.43;;;2.23;;
1174;SDS011;576;48.418;10.074;2023-07-13T03:38:59;2.27;;;2.07;;
1174;SDS011;576;48.418;10.074;2023-07-13T03:41:36;1.80;;;1.70;;
1174;SDS011;576;48.418;10.074;2023-07-13T03:44:05;2.63;;;2.27;;
1174;SDS011;576;48.418;10.074;2023-07-13T03:46:35;3.50;;;2.03;;
1174;SDS011;576;48.418;10.074;2023-07-13T03:49:03;1.80;;;1.70;;
1174;SDS011;576;48.418;10.074;2023-07-13T03:51:32;4.40;;;2.23;;
1174;SDS011;576;48.418;10.074;2023-07-13T03:54:02;2.20;;;2.10;;
1174;SDS011;576;48.418;10.074;2023-07-13T03:56:31;2.30;;;2.10;;
1174;SDS011;576;48.418;10.074;2023-07-13T03:59:01;2.33;;;2.13;;
1174;SDS011;576;48.418;10.074;2023-07-13T04:01:30;3.00;;;2.53;;
1174;SDS011;576;48.418;10.074;2023-07-13T04:04:00;2.27;;;1.90;;
1174;SDS011;576;48.418;10.074;2023-07-13T04:06:30;1.77;;;1.67;;
1174;SDS011;576;48.418;10.074;2023-07-13T04:09:00;2.07;;;1.90;;
1174;SDS011;576;48.418;10.074;2023-07-13T04:11:32;2.00;;;1.90;;
1174;SDS011;576;48.418;10.074;2023-07-13T04:14:03;2.57;;;2.07;;
1174;SDS011;576;48.418;10.074;2023-07-13T04:16:33;1.90;;;1.63;;
1174;SDS011;576;48.418;10.074;2023-07-13T04:19:02;2.50;;;2.10;;
1174;SDS011;576;48.418;10.074;2023-07-13T04:21:31;2.33;;;1.80;;
1174;SDS011;576;48.418;10.074;2023-07-13T04:23:59;1.80;;;1.70;;
1174;SDS011;576;48.418;10.074;2023-07-13T04:26:28;1.80;;;1.70;;
1174;SDS011;576;48.418;10.074;2023-07-13T04:28:56;2.17;;;1.93;;
1174;SDS011;576;48.418;10.074;2023-07-13T04:31:25;1.90;;;1.70;;
1174;SDS011;576;48.418;10.074;2023-07-13T04:33:55;1.70;;;1.60;;
1174;SDS011;576;48.418;10.074;2023-07-13T04:36:24;1.73;;;1.63;;
1174;SDS011;576;48.418;10.074;2023-07-13T04:38:54;2.00;;;1.77;;
1174;SDS011;576;48.418;10.074;2023-07-13T04:41:22;2.47;;;2.27;;
1174;SDS011;576;48.418;10.074;2023-07-13T04:43:50;2.30;;;2.00;;
1174;SDS011;576;48.418;10.074;2023-07-13T04:46:22;2.30;;;2.10;;
1174;SDS011;576;48.418;10.074;2023-07-13T04:48:50;1.80;;;1.70;;
1174;SDS011;576;48.418;10.074;2023-07-13T04:51:20;1.50;;;1.40;;
1174;SDS011;576;48.418;10.074;2023-07-13T04:53:49;4.00;;;2.20;;
1174;SDS011;576;48.418;10.074;2023-07-13T04:56:25;1.80;;;1.63;;
1174;SDS011;576;48.418;10.074;2023-07-13T04:58:53;2.07;;;1.93;;
1174;SDS011;576;48.418;10.074;2023-07-13T05:01:22;3.50;;;2.07;;
1174;SDS011;576;48.418;10.074;2023-07-13T05:03:50;2.13;;;1.97;;
1174;SDS011;576;48.418;10.074;2023-07-13T05:06:19;2.40;;;2.20;;
1174;SDS011;576;48.418;10.074;2023-07-13T05:08:47;5.50;;;2.50;;
1174;SDS011;576;48.418;10.074;2023-07-13T05:11:17;5.63;;;1.73;;
1174;SDS011;576;48.418;10.074;2023-07-13T05:13:46;2.20;;;1.87;;
1174;SDS011;576;48.418;10.074;2023-07-13T05:16:14;2.17;;;2.00;;
1174;SDS011;576;48.418;10.074;2023-07-13T05:18:42;1.73;;;1.53;;
1174;SDS011;576;48.418;10.074;2023-07-13T05:21:10;3.27;;;1.97;;
1174;SDS011;576;48.418;10.074;2023-07-13T05:23:39;3.60;;;1.77;;
1174;SDS011;576;48.418;10.074;2023-07-13T05:26:09;1.57;;;1.47;;
1174;SDS011;576;48.418;10.074;2023-07-13T05:28:39;1.73;;;1.63;;
1174;SDS011;576;48.418;10.074;2023-07-13T05:31:08;3.87;;;1.50;;
1174;SDS011;576;48.418;10.074;2023-07-13T05:33:38;3.03;;;1.83;;
1174;SDS011;576;48.418;10.074;2023-07-13T05:36:06;5.13;;;1.90;;
1174;SDS011;576;48.418;10.074;2023-07-13T05:38:35;2.50;;;1.97;;
1174;SDS011;576;48.418;10.074;2023-07-13T05:41:03;1.80;;;1.70;;
1174;SDS011;576;48.418;10.074;2023-07-13T05:43:31;4.77;;;1.93;;
1174;SDS011;576;48.418;10.074;2023-07-13T05:46:01;3.60;;;1.70;;
1174;SDS011;576;48.418;10.074;2023-07-13T05:48:29;1.70;;;1.60;;
1174;SDS011;576;48.418;10.074;2023-07-13T05:50:58;2.60;;;1.93;;
1174;SDS011;576;48.418;10.074;2023-07-13T05:53:26;4.00;;;1.90;;
1174;SDS011;576;48.418;10.074;2023-07-13T05:55:54;1.60;;;1.50;;
1174;SDS011;576;48.418;10.074;2023-07-13T05:58:26;2.73;;;1.47;;
1174;SDS011;576;48.418;10.074;2023-07-13T06:00:59;1.67;;;1.57;;
1174;SDS011;576;48.418;10.074;2023-07-13T06:03:30;3.07;;;2.23;;
1174;SDS011;576;48.418;10.074;2023-07-13T06:05:58;3.13;;;1.97;;
1174;SDS011;576;48.418;10.074;2023-07-13T06:08:27;2.43;;;2.10;;
1174;SDS011;576;48.418;10.074;2023-07-13T06:11:01;2.13;;;2.00;;
1174;SDS011;576;48.418;10.074;2023-07-13T06:13:30;2.97;;;2.57;;
1174;SDS011;576;48.418;10.074;2023-07-13T06:15:59;2.63;;;2.20;;
1174;SDS011;576;48.418;10.074;2023-07-13T06:18:31;2.70;;;2.23;;
1174;SDS011;576;48.418;10.074;2023-07-13T06:21:00;5.13;;;2.40;;
1174;SDS011;576;48.418;10.074;2023-07-13T06:23:32;3.93;;;2.17;;
1174;SDS011;576;48.418;10.074;2023-07-13T06:26:01;3.23;;;2.37;;
1174;SDS011;576;48.418;10.074;2023-07-13T06:28:30;5.63;;;2.53;;
1174;SDS011;576;48.418;10.074;2023-07-13T06:30:58;3.67;;;1.93;;
1174;SDS011;576;48.418;10.074;2023-07-13T06:33:28;5.63;;;1.90;;
1174;SDS011;576;48.418;10.074;2023-07-13T06:35:57;4.77;;;2.70;;
1174;SDS011;576;48.418;10.074;2023-07-13T06:38:25;3.63;;;2.50;;
1174;SDS011;576;48.418;10.074;2023-07-13T06:40:53;4.67;;;2.20;;
1174;SDS011;576;48.418;10.074;2023-07-13T06:43:21;3.97;;;2.57;;
1174;SDS011;576;48.418;10.074;2023-07-13T06:45:51;2.10;;;1.83;;
1174;SDS011;576;48.418;10.074;2023-07-13T06:48:22;3.40;;;2.53;;
1174;SDS011;576;48.418;10.074;2023-07-13T06:50:52;2.30;;;2.20;;
1174;SDS011;576;48.418;10.074;2023-07-13T06:53:20;3.23;;;1.97;;
1174;SDS011;576;48.418;10.074;2023-07-13T06:55:49;2.70;;;2.37;;
1174;SDS011;576;48.418;10.074;2023-07-13T06:58:18;3.33;;;2.60;;
1174;SDS011;576;48.418;10.074;2023-07-13T07:00:49;3.43;;;2.60;;
1174;SDS011;576;48.418;10.074;2023-07-13T07:03:19;3.53;;;2.40;;
1174;SDS011;576;48.418;10.074;2023-07-13T07:05:47;2.50;;;2.30;;
1174;SDS011;576;48.418;10.074;2023-07-13T07:08:17;2.97;;;2.17;;
1174;SDS011;576;48.418;10.074;2023-07-13T07:10:45;2.93;;;2.23;;
1174;SDS011;576;48.418;10.074;2023-07-13T07:13:13;3.50;;;2.63;;
1174;SDS011;576;48.418;10.074;2023-07-13T07:15:41;6.27;;;2.50;;
1174;SDS011;576;48.418;10.074;2023-07-13T07:18:10;2.67;;;2.07;;
1174;SDS011;576;48.418;10.074;2023-07-13T07:20:38;2.43;;;2.20;;
1174;SDS011;576;48.418;10.074;2023-07-13T07:23:06;3.13;;;2.33;;
1174;SDS011;576;48.418;10.074;2023-07-13T07:25:36;4.07;;;1.87;;
1174;SDS011;576;48.418;10.074;2023-07-13T07:28:08;3.13;;;2.17;;
1174;SDS011;576;48.418;10.074;2023-07-13T07:30:41;4.17;;;2.80;;
1174;SDS011;576;48.418;10.074;2023-07-13T07:33:13;5.07;;;2.47;;
1174;SDS011;576;48.418;10.074;2023-07-13T07:35:42;5.70;;;2.77;;
1174;SDS011;576;48.418;10.074;2023-07-13T07:38:31;4.30;;;2.50;;
1174;SDS011;576;48.418;10.074;2023-07-13T07:41:02;5.70;;;2.27;;
1174;SDS011;576;48.418;10.074;2023-07-13T07:43:34;3.00;;;2.33;;
1174;SDS011;576;48.418;10.074;2023-07-13T07:46:02;3.53;;;2.30;;
1174;SDS011;576;48.418;10.074;2023-07-13T07:48:31;7.00;;;2.70;;
1174;SDS011;576;48.418;10.074;2023-07-13T07:50:59;4.13;;;2.63;;
1174;SDS011;576;48.418;10.074;2023-07-13T07:53:27;2.83;;;2.10;;
1174;SDS011;576;48.418;10.074;2023-07-13T07:55:59;3.10;;;2.37;;
1174;SDS011;576;48.418;10.074;2023-07-13T07:58:49;7.47;;;2.87;;
1174;SDS011;576;48.418;10.074;2023-07-13T08:01:20;7.40;;;2.50;;
1174;SDS011;576;48.418;10.074;2023-07-13T08:03:51;4.10;;;2.13;;
1174;SDS011;576;48.418;10.074;2023-07-13T08:06:23;6.33;;;2.60;;
1174;SDS011;576;48.418;10.074;2023-07-13T08:09:10;4.73;;;2.80;;
1174;SDS011;576;48.418;10.074;2023-07-13T08:11:40;2.00;;;1.80;;
1174;SDS011;576;48.418;10.074;2023-07-13T08:14:11;2.17;;;1.93;;
1174;SDS011;576;48.418;10.074;2023-07-13T08:16:39;3.10;;;2.20;;
1174;SDS011;576;48.418;10.074;2023-07-13T08:19:07;4.20;;;2.33;;
1174;SDS011;576;48.418;10.074;2023-07-13T08:21:36;2.40;;;2.07;;
1174;SDS011;576;48.418;10.074;2023-07-13T08:24:05;3.33;;;2.60;;
1174;SDS011;576;48.418;10.074;2023-07-13T08:26:33;2.23;;;1.83;;
1174;SDS011;576;48.418;10.074;2023-07-13T08:29:03;3.07;;;2.37;;
1174;SDS011;576;48.418;10.074;2023-07-13T08:31:31;3.50;;;1.97;;
1174;SDS011;576;48.418;10.074;2023-07-13T08:33:59;2.23;;;2.03;;
1174;SDS011;576;48.418;10.074;2023-07-13T08:36:28;2.83;;;2.60;;
1174;SDS011;576;48.418;10.074;2023-07-13T08:38:57;2.10;;;2.00;;
1174;SDS011;576;48.418;10.074;2023-07-13T08:41:25;2.83;;;2.60;;
1174;SDS011;576;48.418;10.074;2023-07-13T08:43:56;2.73;;;2.53;;
1174;SDS011;576;48.418;10.074;2023-07-13T08:46:28;2.77;;;2.57;;
1174;SDS011;576;48.418;10.074;2023-07-13T08:49:02;5.47;;;2.13;;
1174;SDS011;576;48.418;10.074;2023-07-13T08:51:35;2.97;;;2.27;;
1174;SDS011;576;48.418;10.074;2023-07-13T08:54:12;2.93;;;2.27;;
1174;SDS011;576;48.418;10.074;2023-07-13T08:56:48;4.90;;;2.00;;
1174;SDS011;576;48.418;10.074;2023-07-13T08:59:20;2.87;;;2.53;;
1174;SDS011;576;48.418;10.074;2023-07-13T09:01:57;2.53;;;2.33;;
1174;SDS011;576;48.418;10.074;2023-07-13T09:04:49;2.37;;;2.17;;
1174;SDS011;576;48.418;10.074;2023-07-13T09:07:25;2.27;;;2.17;;
1174;SDS011;576;48.418;10.074;2023-07-13T09:10:02;3.13;;;2.33;;
1174;SDS011;576;48.418;10.074;2023-07-13T09:12:41;2.97;;;2.40;;
1174;SDS011;576;48.418;10.074;2023-07-13T09:15:24;2.57;;;2.37;;
1174;SDS011;576;48.418;10.074;2023-07-13T09:17:59;2.50;;;2.30;;
1174;SDS011;576;48.418;10.074;2023-07-13T09:20:32;2.17;;;2.07;;
1174;SDS011;576;48.418;10.074;2023-07-13T09:23:04;2.23;;;2.13;;
1174;SDS011;576;48.418;10.074;2023-07-13T09:25:40;2.50;;;2.30;;
1174;SDS011;576;48.418;10.074;2023-07-13T09:28:15;2.20;;;2.10;;
1174;SDS011;576;48.418;10.074;2023-07-13T09:30:48;4.00;;;2.10;;
1174;SDS011;576;48.418;10.074;2023-07-13T09:33:22;3.83;;;2.67;;
1174;SDS011;576;48.418;10.074;2023-07-13T09:35:50;2.80;;;2.60;;
1174;SDS011;576;48.418;10.074;2023-07-13T09:38:19;2.63;;;2.43;;
1174;SDS011;576;48.418;10.074;2023-07-13T09:41:04;5.13;;;2.40;;
1174;SDS011;576;48.418;10.074;2023-07-13T09:44:00;2.23;;;2.13;;
1174;SDS011;576;48.418;10.074;2023-07-13T09:46:35;2.87;;;2.67;;
1174;SDS011;576;48.418;10.074;2023-07-13T09:49:05;2.47;;;2.30;;
1174;SDS011;576;48.418;10.074;2023-07-13T09:51:36;2.13;;;2.03;;
1174;SDS011;576;48.418;10.074;2023-07-13T09:54:05;3.10;;;2.30;;
1174;SDS011;576;48.418;10.074;2023-07-13T09:56:44;2.40;;;2.30;;
1174;SDS011;576;48.418;10.074;2023-07-13T09:59:18;2.63;;;2.43;;
1174;SDS011;576;48.418;10.074;2023-07-13T10:01:47;2.50;;;2.30;;
1174;SDS011;576;48.418;10.074;2023-07-13T10:04:18;2.60;;;2.40;;
1174;SDS011;576;48.418;10.074;2023-07-13T10:06:47;2.03;;;1.83;;
1174;SDS011;576;48.418;10.074;2023-07-13T10:09:18;2.70;;;2.50;;
1174;SDS011;576;48.418;10.074;2023-07-13T10:11:46;2.63;;;2.53;;
1174;SDS011;576;48.418;10.074;2023-07-13T10:14:20;2.27;;;2.17;;
1174;SDS011;576;48.418;10.074;2023-07-13T10:16:52;2.43;;;2.33;;
1174;SDS011;576;48.418;10.074;2023-07-13T10:19:31;2.60;;;2.43;;
1174;SDS011;576;48.418;10.074;2023-07-13T10:22:02;2.53;;;2.30;;
1174;SDS011;576;48.418;10.074;2023-07-13T10:24:42;2.20;;;2.10;;
1174;SDS011;576;48.418;10.074;2023-07-13T10:27:13;2.67;;;2.47;;
1174;SDS011;576;48.418;10.074;2023-07-13T10:29:45;1.70;;;1.60;;
1174;SDS011;576;48.418;10.074;2023-07-13T10:32:15;2.00;;;1.90;;
1174;SDS011;576;48.418;10.074;2023-07-13T10:34:48;2.40;;;2.20;;
1174;SDS011;576;48.418;10.074;2023-07-13T10:37:19;1.97;;;1.87;;
1174;SDS011;576;48.418;10.074;2023-07-13T10:39:51;1.90;;;1.80;;
1174;SDS011;576;48.418;10.074;2023-07-13T10:42:25;2.03;;;1.50;;
1174;SDS011;576;48.418;10.074;2023-07-13T10:44:56;2.07;;;1.87;;
1174;SDS011;576;48.418;10.074;2023-07-13T10:47:24;2.10;;;1.83;;
1174;SDS011;576;48.418;10.074;2023-07-13T10:49:56;2.50;;;1.80;;
1174;SDS011;576;48.418;10.074;2023-07-13T10:52:40;2.17;;;2.07;;
1174;SDS011;576;48.418;10.074;2023-07-13T10:58:00;4.13;;;3.33;;
1174;SDS011;576;48.418;10.074;2023-07-13T11:00:31;3.33;;;2.80;;
1174;SDS011;576;48.418;10.074;2023-07-13T11:03:00;3.37;;;2.90;;
1174;SDS011;576;48.418;10.074;2023-07-13T11:05:32;3.10;;;2.90;;
1174;SDS011;576;48.418;10.074;2023-07-13T11:08:03;3.00;;;2.63;;
1174;SDS011;576;48.418;10.074;2023-07-13T11:10:49;2.87;;;2.67;;
1174;SDS011;576;48.418;10.074;2023-07-13T11:13:38;2.73;;;2.40;;
1174;SDS011;576;48.418;10.074;2023-07-13T11:16:42;2.60;;;2.40;;
1174;SDS011;576;48.418;10.074;2023-07-13T11:22:12;3.10;;;2.50;;
1174;SDS011;576;48.418;10.074;2023-07-13T11:24:50;3.67;;;2.50;;
1174;SDS011;576;48.418;10.074;2023-07-13T11:27:34;3.40;;;2.67;;
1174;SDS011;576;48.418;10.074;2023-07-13T11:30:22;6.43;;;5.93;;
1174;SDS011;576;48.418;10.074;2023-07-13T11:33:02;10.00;;;9.00;;
1174;SDS011;576;48.418;10.074;2023-07-13T11:35:41;11.50;;;9.90;;
1174;SDS011;576;48.418;10.074;2023-07-13T11:38:18;12.60;;;9.40;;
1174;SDS011;576;48.418;10.074;2023-07-13T11:40:50;12.13;;;10.30;;
1174;SDS011;576;48.418;10.074;2023-07-13T11:43:22;12.27;;;10.17;;
1174;SDS011;576;48.418;10.074;2023-07-13T11:45:52;12.80;;;9.80;;
1174;SDS011;576;48.418;10.074;2023-07-13T11:48:21;9.13;;;8.00;;
1174;SDS011;576;48.418;10.074;2023-07-13T11:50:53;10.30;;;7.73;;
1174;SDS011;576;48.418;10.074;2023-07-13T11:53:27;10.93;;;8.20;;
1174;SDS011;576;48.418;10.074;2023-07-13T11:55:58;8.17;;;7.47;;
1174;SDS011;576;48.418;10.074;2023-07-13T11:58:26;7.40;;;6.70;;
1174;SDS011;576;48.418;10.074;2023-07-13T12:00:57;6.53;;;5.93;;
1174;SDS011;576;48.418;10.074;2023-07-13T12:03:30;6.87;;;6.17;;
1174;SDS011;576;48.418;10.074;2023-07-13T12:06:02;7.90;;;6.20;;
1174;SDS011;576;48.418;10.074;2023-07-13T12:08:38;5.80;;;5.30;;
1174;SDS011;576;48.418;10.074;2023-07-13T12:11:17;5.50;;;4.60;;
1174;SDS011;576;48.418;10.074;2023-07-13T12:13:46;6.87;;;5.43;;
1174;SDS011;576;48.418;10.074;2023-07-13T12:16:16;6.20;;;5.63;;
1174;SDS011;576;48.418;10.074;2023-07-13T12:19:00;5.63;;;5.03;;
1174;SDS011;576;48.418;10.074;2023-07-13T12:21:31;5.40;;;4.57;;
1174;SDS011;576;48.418;10.074;2023-07-13T12:24:02;6.00;;;5.40;;
1174;SDS011;576;48.418;10.074;2023-07-13T12:26:32;5.87;;;5.27;;
1174;SDS011;576;48.418;10.074;2023-07-13T12:29:01;8.20;;;4.93;;
1174;SDS011;576;48.418;10.074;2023-07-13T12:31:35;6.83;;;4.40;;
1174;SDS011;576;48.418;10.074;2023-07-13T12:34:06;8.73;;;5.30;;
1174;SDS011;576;48.418;10.074;2023-07-13T12:36:39;6.43;;;4.53;;
1174;SDS011;576;48.418;10.074;2023-07-13T12:39:15;6.17;;;5.27;;
1174;SDS011;576;48.418;10.074;2023-07-13T12:41:46;5.80;;;5.30;;
1174;SDS011;576;48.418;10.074;2023-07-13T12:44:17;6.17;;;4.20;;
1174;SDS011;576;48.418;10.074;2023-07-13T12:46:56;5.00;;;4.67;;
1174;SDS011;576;48.418;10.074;2023-07-13T12:49:28;9.70;;;4.20;;
1174;SDS011;576;48.418;10.074;2023-07-13T12:52:03;5.80;;;4.97;;
1174;SDS011;576;48.418;10.074;2023-07-13T12:54:51;4.40;;;4.00;;
1174;SDS011;576;48.418;10.074;2023-07-13T12:57:34;4.77;;;4.37;;
1174;SDS011;576;48.418;10.074;2023-07-13T13:00:19;5.13;;;4.63;;
1174;SDS011;576;48.418;10.074;2023-07-13T13:02:55;5.10;;;4.60;;
1174;SDS011;576;48.418;10.074;2023-07-13T13:05:28;4.73;;;4.23;;
1174;SDS011;576;48.418;10.074;2023-07-13T13:07:57;6.50;;;4.70;;
1174;SDS011;576;48.418;10.074;2023-07-13T13:10:27;4.37;;;4.07;;
1174;SDS011;576;48.418;10.074;2023-07-13T13:12:55;4.40;;;3.97;;
1174;SDS011;576;48.418;10.074;2023-07-13T13:15:23;4.80;;;3.77;;
1174;SDS011;576;48.418;10.074;2023-07-13T13:17:52;5.07;;;4.07;;
1174;SDS011;576;48.418;10.074;2023-07-13T13:20:21;4.50;;;3.43;;
1174;SDS011;576;48.418;10.074;2023-07-13T13:22:49;4.00;;;3.70;;
1174;SDS011;576;48.418;10.074;2023-07-13T13:25:18;5.53;;;3.57;;
1174;SDS011;576;48.418;10.074;2023-07-13T13:27:48;3.70;;;3.40;;
1174;SDS011;576;48.418;10.074;2023-07-13T13:30:17;3.93;;;3.53;;
1174;SDS011;576;48.418;10.074;2023-07-13T13:32:47;3.80;;;3.50;;
1174;SDS011;576;48.418;10.074;2023-07-13T13:35:17;4.33;;;3.70;;
1174;SDS011;576;48.418;10.074;2023-07-13T13:37:47;3.53;;;3.23;;
1174;SDS011;576;48.418;10.074;2023-07-13T13:40:17;3.80;;;3.50;;
1174;SDS011;576;48.418;10.074;2023-07-13T13:42:49;5.20;;;3.30;;
1174;SDS011;576;48.418;10.074;2023-07-13T13:45:18;5.17;;;3.50;;
1174;SDS011;576;48.418;10.074;2023-07-13T13:47:47;3.50;;;3.20;;
1174;SDS011;576;48.418;10.074;2023-07-13T13:50:16;3.80;;;3.20;;
1174;SDS011;576;48.418;10.074;2023-07-13T13:52:47;4.00;;;3.70;;
1174;SDS011;576;48.418;10.074;2023-07-13T13:55:16;3.20;;;3.00;;
1174;SDS011;576;48.418;10.074;2023-07-13T13:57:46;4.97;;;3.13;;
1174;SDS011;576;48.418;10.074;2023-07-13T14:00:16;3.20;;;3.00;;
1174;SDS011;576;48.418;10.074;2023-07-13T14:02:46;2.70;;;2.50;;
1174;SDS011;576;48.418;10.074;2023-07-13T14:05:17;3.33;;;3.00;;
1174;SDS011;576;48.418;10.074;2023-07-13T14:07:49;3.03;;;2.70;;
1174;SDS011;576;48.418;10.074;2023-07-13T14:10:17;5.10;;;2.93;;
1174;SDS011;576;48.418;10.074;2023-07-13T14:12:47;5.30;;;2.90;;
1174;SDS011;576;48.418;10.074;2023-07-13T14:15:22;3.03;;;2.83;;
1174;SDS011;576;48.418;10.074;2023-07-13T14:17:53;3.90;;;2.77;;
1174;SDS011;576;48.418;10.074;2023-07-13T14:20:24;3.33;;;3.00;;
1174;SDS011;576;48.418;10.074;2023-07-13T14:22:53;3.73;;;2.60;;
1174;SDS011;576;48.418;10.074;2023-07-13T14:25:21;2.93;;;2.70;;
1174;SDS011;576;48.418;10.074;2023-07-13T14:27:53;2.87;;;2.77;;
1174;SDS011;576;48.418;10.074;2023-07-13T14:30:28;2.60;;;2.40;;
1174;SDS011;576;48.418;10.074;2023-07-13T14:32:56;2.90;;;2.70;;
1174;SDS011;576;48.418;10.074;2023-07-13T14:35:25;5.13;;;2.37;;
1174;SDS011;576;48.418;10.074;2023-07-13T14:37:53;2.80;;;2.60;;
1174;SDS011;576;48.418;10.074;2023-07-13T14:40:24;2.13;;;2.03;;
1174;SDS011;576;48.418;10.074;2023-07-13T14:42:57;3.80;;;3.00;;
1174;SDS011;576;48.418;10.074;2023-07-13T14:45:26;2.63;;;2.47;;
1174;SDS011;576;48.418;10.074;2023-07-13T14:47:56;2.50;;;2.40;;
1174;SDS011;576;48.418;10.074;2023-07-13T14:50:26;2.60;;;2.40;;
1174;SDS011;576;48.418;10.074;2023-07-13T14:52:58;2.70;;;2.50;;
1174;SDS011;576;48.418;10.074;2023-07-13T14:55:27;2.50;;;2.10;;
1174;SDS011;576;48.418;10.074;2023-07-13T14:57:55;2.40;;;2.27;;
1174;SDS011;576;48.418;10.074;2023-07-13T15:00:24;4.53;;;2.30;;
1174;SDS011;576;48.418;10.074;2023-07-13T15:02:54;4.77;;;2.20;;
1174;SDS011;576;48.418;10.074;2023-07-13T15:05:27;3.63;;;2.00;;
1174;SDS011;576;48.418;10.074;2023-07-13T15:07:57;2.10;;;1.90;;
1174;SDS011;576;48.418;10.074;2023-07-13T15:10:27;2.43;;;2.20;;
1174;SDS011;576;48.418;10.074;2023-07-13T15:12:58;2.13;;;2.03;;
1174;SDS011;576;48.418;10.074;2023-07-13T15:15:28;2.53;;;2.33;;
1174;SDS011;576;48.418;10.074;2023-07-13T15:18:00;2.33;;;2.23;;
1174;SDS011;576;48.418;10.074;2023-07-13T15:20:29;3.67;;;2.27;;
1174;SDS011;576;48.418;10.074;2023-07-13T15:23:00;5.97;;;2.77;;
1174;SDS011;576;48.418;10.074;2023-07-13T15:25:30;2.77;;;2.57;;
1174;SDS011;576;48.418;10.074;2023-07-13T15:28:00;2.37;;;1.80;;
1174;SDS011;576;48.418;10.074;2023-07-13T15:30:29;2.43;;;2.23;;
1174;SDS011;576;48.418;10.074;2023-07-13T15:33:05;2.30;;;2.17;;
1174;SDS011;576;48.418;10.074;2023-07-13T15:35:39;3.37;;;2.40;;
1174;SDS011;576;48.418;10.074;2023-07-13T15:38:15;2.30;;;2.13;;
1174;SDS011;576;48.418;10.074;2023-07-13T15:40:45;3.13;;;2.07;;
1174;SDS011;576;48.418;10.074;2023-07-13T15:43:14;3.97;;;2.23;;
1174;SDS011;576;48.418;10.074;2023-07-13T15:45:44;4.73;;;2.40;;
1174;SDS011;576;48.418;10.074;2023-07-13T15:48:15;5.13;;;2.57;;